createdAt,value
2022-12-18T00:00:02.334Z,88013.19
2022-12-18T00:02:29.790Z,88011.09
2022-12-18T00:04:57.121Z,88009.56
2022-12-18T00:07:24.298Z,88012.72
2022-12-18T00:09:51.443Z,88002.94
2022-12-18T00:14:50.795Z,88011.75
2022-12-18T00:17:18.015Z,88018.44
2022-12-18T00:19:45.161Z,88010.22
2022-12-18T00:22:12.421Z,88017.41
2022-12-18T00:24:39.628Z,88011.47
2022-12-18T00:27:06.836Z,88020.84
2022-12-18T00:29:34.056Z,88027.06
2022-12-18T00:32:01.287Z,88026.88
2022-12-18T00:34:28.768Z,88033.38
2022-12-18T00:36:55.919Z,88042.16
2022-12-18T00:39:23.268Z,88039.09
2022-12-18T00:41:50.469Z,88043.00
2022-12-18T00:44:19.657Z,88043.13
2022-12-18T00:46:48.733Z,88044.16
2022-12-18T00:49:19.345Z,88036.22
2022-12-18T00:51:47.614Z,88043.97
2022-12-18T00:54:15.138Z,88042.72
2022-12-18T00:56:50.112Z,88050.84
2022-12-18T00:59:20.755Z,88060.41
2022-12-18T01:01:48.711Z,88051.75
2022-12-18T01:04:16.356Z,88052.53
2022-12-18T01:06:43.513Z,88049.78
2022-12-18T01:09:12.072Z,88049.78
2022-12-18T01:11:39.262Z,88058.13
2022-12-18T01:14:06.502Z,88058.13
2022-12-18T01:16:33.748Z,88057.13
2022-12-18T01:19:00.926Z,88056.66
2022-12-18T01:21:28.661Z,88056.75
2022-12-18T01:23:57.853Z,88060.66
2022-12-18T01:26:26.683Z,88066.19
2022-12-18T01:28:56.632Z,88066.19
2022-12-18T01:31:31.304Z,88066.19
2022-12-18T01:34:01.034Z,88074.34
2022-12-18T01:36:35.449Z,88078.59
2022-12-18T01:39:14.943Z,88083.31
2022-12-18T01:41:43.174Z,88090.59
2022-12-18T01:45:03.736Z,88099.66
2022-12-18T01:47:50.553Z,88095.31
2022-12-18T01:50:25.851Z,88097.66
2022-12-18T01:53:20.058Z,88097.81
2022-12-18T01:55:55.461Z,88104.00
2022-12-18T01:58:42.430Z,88111.44
2022-12-18T02:01:10.172Z,88120.25
2022-12-18T02:03:38.205Z,88115.38
2022-12-18T02:06:21.381Z,88120.78
2022-12-18T02:09:09.759Z,88126.72
2022-12-18T02:12:26.361Z,88129.84
2022-12-18T02:15:04.081Z,88139.69
2022-12-18T02:17:44.035Z,88140.66
2022-12-18T02:20:29.052Z,88145.28
2022-12-18T02:23:32.808Z,88146.88
2022-12-18T02:26:15.433Z,88149.47
2022-12-18T02:28:58.316Z,88153.06
2022-12-18T02:31:32.512Z,88147.91
2022-12-18T02:34:05.253Z,88146.88
2022-12-18T02:36:37.294Z,88148.41
2022-12-18T02:39:08.956Z,88149.94
2022-12-18T02:41:37.531Z,88153.56
2022-12-18T02:44:14.302Z,88147.66
2022-12-18T02:46:50.114Z,88145.28
2022-12-18T02:49:36.920Z,88149.47
2022-12-18T02:52:29.419Z,88155.44
2022-12-18T02:55:15.592Z,88149.50
2022-12-18T02:57:56.337Z,88142.59
2022-12-18T03:00:31.042Z,88151.38
2022-12-18T03:03:42.928Z,88145.50
2022-12-18T03:06:30.316Z,88152.69
2022-12-18T03:09:10.306Z,88150.13
2022-12-18T03:11:46.132Z,88148.84
2022-12-18T03:14:18.009Z,88156.84
2022-12-18T03:16:49.400Z,88162.06
2022-12-18T03:19:22.304Z,88157.94
2022-12-18T03:21:55.320Z,88163.09
2022-12-18T03:24:25.921Z,88171.91
2022-12-18T03:27:02.011Z,88167.22
2022-12-18T03:29:43.640Z,88165.16
2022-12-18T03:32:28.125Z,88161.03
2022-12-18T03:35:01.509Z,88162.06
2022-12-18T03:37:32.455Z,88171.34
2022-12-18T03:39:59.891Z,88163.66
2022-12-18T03:42:49.903Z,88167.78
2022-12-18T03:45:43.592Z,88174.53
2022-12-18T03:48:36.468Z,88173.78
2022-12-18T03:51:18.680Z,88183.31
2022-12-18T03:54:10.108Z,88185.66
2022-12-18T03:56:48.041Z,88202.97
2022-12-18T03:59:18.439Z,88199.88
2022-12-18T04:01:51.601Z,88199.88
2022-12-18T04:04:21.119Z,88206.91
2022-12-18T04:07:01.932Z,88208.72
2022-12-18T04:09:32.971Z,88204.09
2022-12-18T04:12:00.161Z,88214.38
2022-12-18T04:14:27.340Z,88205.03
2022-12-18T04:16:54.564Z,88214.06
2022-12-18T04:19:21.723Z,88216.09
2022-12-18T04:21:48.851Z,88208.63
2022-12-18T04:24:16.067Z,88220.47
2022-12-18T04:26:43.172Z,88218.44
2022-12-18T04:29:10.398Z,88222.81
2022-12-18T04:32:01.721Z,88216.41
2022-12-18T04:34:29.821Z,88224.19
2022-12-18T04:36:59.018Z,88230.38
2022-12-18T04:39:26.820Z,88225.25
2022-12-18T04:41:54.023Z,88232.97
2022-12-18T04:44:37.020Z,88232.25
2022-12-18T04:47:09.653Z,88230.19
2022-12-18T04:49:36.849Z,88239.44
2022-12-18T04:52:04.147Z,88243.84
2022-12-18T04:54:31.315Z,88249.53
2022-12-18T04:56:58.498Z,88242.81
2022-12-18T04:59:25.710Z,88248.75
2022-12-18T05:01:52.951Z,88253.72
2022-12-18T05:04:20.296Z,88258.38
2022-12-18T05:06:47.499Z,88259.91
2022-12-18T05:09:15.563Z,88258.91
2022-12-18T05:11:42.722Z,88253.75
2022-12-18T05:14:09.933Z,88270.75
2022-12-18T05:16:37.080Z,88274.38
2022-12-18T05:19:04.225Z,88273.56
2022-12-18T05:21:31.373Z,88277.22
2022-12-18T05:23:58.593Z,88274.88
2022-12-18T05:26:25.748Z,88268.97
2022-12-18T05:28:52.910Z,88282.38
2022-12-18T05:31:20.131Z,88284.66
2022-12-18T05:33:47.368Z,88284.94
2022-12-18T05:36:14.602Z,88282.38
2022-12-18T05:38:42.631Z,88289.59
2022-12-18T05:41:10.670Z,88289.31
2022-12-18T05:43:40.758Z,88284.97
2022-12-18T05:46:13.859Z,88279.28
2022-12-18T05:48:42.457Z,88280.88
2022-12-18T05:51:14.042Z,88280.63
2022-12-18T05:53:42.545Z,88285.28
2022-12-18T05:56:17.661Z,88285.78
2022-12-18T05:58:45.920Z,88285.78
2022-12-18T06:01:20.265Z,88286.59
2022-12-18T06:03:48.037Z,88293.09
2022-12-18T06:06:27.870Z,88286.69
2022-12-18T06:08:56.696Z,88293.13
2022-12-18T06:11:27.423Z,88291.06
2022-12-18T06:13:58.971Z,88294.69
2022-12-18T06:16:29.822Z,88300.66
2022-12-18T06:19:00.352Z,88303.22
2022-12-18T06:21:29.645Z,88309.16
2022-12-18T06:23:57.495Z,88310.97
2022-12-18T06:26:28.264Z,88313.81
2022-12-18T06:28:56.039Z,88317.94
2022-12-18T06:31:23.419Z,88319.97
2022-12-18T06:33:50.810Z,88334.94
2022-12-18T06:36:18.373Z,88332.34
2022-12-18T06:38:45.847Z,88335.97
2022-12-18T06:41:21.075Z,88343.72
2022-12-18T06:43:48.725Z,88345.28
2022-12-18T06:46:16.061Z,88343.47
2022-12-18T06:48:43.561Z,88343.19
2022-12-18T06:51:11.638Z,88351.44
2022-12-18T06:53:39.030Z,88354.50
2022-12-18T06:56:10.635Z,88355.56
2022-12-18T06:58:39.468Z,88348.88
2022-12-18T07:01:10.860Z,88357.59
2022-12-18T07:03:40.602Z,88354.56
2022-12-18T07:06:17.843Z,88356.59
2022-12-18T07:08:46.800Z,88358.16
2022-12-18T07:11:15.193Z,88360.72
2022-12-18T07:13:42.991Z,88357.66
2022-12-18T07:16:19.650Z,88359.19
2022-12-18T07:18:49.756Z,88361.22
2022-12-18T07:21:21.778Z,88362.78
2022-12-18T07:23:49.462Z,88365.34
2022-12-18T07:26:20.924Z,88381.03
2022-12-18T07:28:49.325Z,88375.66
2022-12-18T07:31:21.532Z,88376.16
2022-12-18T07:33:51.211Z,88380.53
2022-12-18T07:36:19.368Z,88379.75
2022-12-18T07:38:50.169Z,88386.44
2022-12-18T07:41:18.095Z,88388.25
2022-12-18T07:43:45.735Z,88388.75
2022-12-18T07:46:15.005Z,88394.94
2022-12-18T07:48:45.550Z,88400.34
2022-12-18T07:51:18.622Z,88408.34
2022-12-18T07:53:46.041Z,88404.97
2022-12-18T07:56:30.840Z,88411.13
2022-12-18T07:59:00.481Z,88410.38
2022-12-18T08:01:28.356Z,88406.00
2022-12-18T08:03:55.832Z,88408.06
2022-12-18T08:06:24.073Z,88407.00
2022-12-18T08:08:56.870Z,88417.56
2022-12-18T08:11:27.526Z,88418.31
2022-12-18T08:13:55.353Z,88420.38
2022-12-18T08:16:23.367Z,88425.53
2022-12-18T08:18:53.540Z,88427.03
2022-12-18T08:21:30.785Z,88432.19
2022-12-18T08:24:01.368Z,88435.25
2022-12-18T08:26:32.134Z,88436.78
2022-12-18T08:29:01.506Z,88432.16
2022-12-18T08:31:30.955Z,88434.44
2022-12-18T08:33:58.633Z,88433.13
2022-12-18T08:36:26.384Z,88429.97
2022-12-18T08:38:54.683Z,88433.06
2022-12-18T08:41:22.582Z,88427.59
2022-12-18T08:43:50.325Z,88436.13
2022-12-18T08:46:19.055Z,88440.25
2022-12-18T08:48:46.605Z,88437.88
2022-12-18T08:51:14.290Z,88433.22
2022-12-18T08:53:41.952Z,88430.41
2022-12-18T08:56:09.783Z,88438.16
2022-12-18T08:58:37.390Z,88440.69
2022-12-18T09:01:10.165Z,88439.13
2022-12-18T09:03:38.873Z,88437.56
2022-12-18T09:06:09.434Z,88444.50
2022-12-18T09:08:41.175Z,88439.09
2022-12-18T09:11:20.619Z,88439.84
2022-12-18T09:13:48.158Z,88451.16
2022-12-18T09:16:17.621Z,88446.47
2022-12-18T09:18:45.251Z,88447.25
2022-12-18T09:21:16.632Z,88447.22
2022-12-18T09:23:44.817Z,88449.25
2022-12-18T09:26:12.131Z,88444.34
2022-12-18T09:28:39.669Z,88434.53
2022-12-18T09:31:09.536Z,88441.69
2022-12-18T09:33:37.282Z,88445.31
2022-12-18T09:36:08.096Z,88440.66
2022-12-18T09:38:36.341Z,88446.03
2022-12-18T09:41:43.579Z,88446.31
2022-12-18T09:44:28.631Z,88443.47
2022-12-18T09:47:27.228Z,88447.59
2022-12-18T09:50:01.486Z,88442.44
2022-12-18T09:52:40.960Z,88445.22
2022-12-18T09:55:37.490Z,88440.53
2022-12-18T09:58:39.469Z,88434.84
2022-12-18T10:01:23.095Z,88441.50
2022-12-18T10:03:51.653Z,88431.94
2022-12-18T10:06:28.350Z,88429.03
2022-12-18T10:09:25.677Z,88431.81
2022-12-18T10:12:38.713Z,88427.38
2022-12-18T10:15:41.075Z,88418.25
2022-12-18T10:18:49.982Z,88407.88
2022-12-18T10:22:19.505Z,88410.72
2022-12-18T10:25:02.932Z,88405.78
2022-12-18T10:27:31.600Z,88405.25
2022-12-18T10:30:02.306Z,88397.78
2022-12-18T10:32:32.010Z,88412.56
2022-12-18T10:35:00.708Z,88401.94
2022-12-18T10:37:30.775Z,88401.94
2022-12-18T10:40:22.192Z,88401.41
2022-12-18T10:43:13.731Z,88409.44
2022-12-18T10:45:42.351Z,88407.44
2022-12-18T10:48:23.318Z,88402.53
2022-12-18T10:53:43.573Z,88396.59
2022-12-18T10:56:11.509Z,88395.28
2022-12-18T10:58:40.921Z,88390.41
2022-12-18T11:01:14.554Z,88395.06
2022-12-18T11:03:50.743Z,88396.06
2022-12-18T11:06:24.828Z,88395.56
2022-12-18T11:09:29.176Z,88393.44
2022-12-18T11:12:06.835Z,88392.72
2022-12-18T11:14:57.510Z,88390.34
2022-12-18T11:17:35.793Z,88395.94
2022-12-18T11:20:19.479Z,88396.03
2022-12-18T11:23:04.947Z,88388.16
2022-12-18T11:25:35.768Z,88393.63
2022-12-18T11:28:45.702Z,88390.84
2022-12-18T11:31:29.343Z,88383.63
2022-12-18T11:34:29.804Z,88379.25
2022-12-18T11:37:02.007Z,88382.03
2022-12-18T11:39:51.079Z,88380.03
2022-12-18T11:42:39.053Z,88379.63
2022-12-18T11:45:12.804Z,88373.63
2022-12-18T11:48:01.537Z,88373.94
2022-12-18T11:50:37.798Z,88381.28
2022-12-18T11:53:06.379Z,88377.88
2022-12-18T11:55:51.972Z,88395.72
2022-12-18T11:58:31.597Z,88390.75
2022-12-18T12:01:46.831Z,88391.75
2022-12-18T12:04:44.439Z,88390.03
2022-12-18T12:07:37.407Z,88391.06
2022-12-18T12:10:43.507Z,88387.91
2022-12-18T12:14:08.102Z,88398.41
2022-12-18T12:17:16.715Z,88400.88
2022-12-18T12:20:03.442Z,88396.56
2022-12-18T12:22:51.707Z,88405.22
2022-12-18T12:25:52.126Z,88405.53
2022-12-18T12:29:10.866Z,88398.84
2022-12-18T12:32:03.758Z,88405.13
2022-12-18T12:34:54.820Z,88412.19
2022-12-18T12:37:58.710Z,88407.84
2022-12-18T12:43:28.317Z,88410.78
2022-12-18T12:46:08.074Z,88411.31
2022-12-18T12:48:49.181Z,88407.25
2022-12-18T12:51:41.788Z,88404.69
2022-12-18T12:54:24.252Z,88403.69
2022-12-18T12:57:17.100Z,88393.91
2022-12-18T13:00:13.973Z,88401.94
2022-12-18T13:03:18.355Z,88396.03
2022-12-18T13:06:45.125Z,88400.44
2022-12-18T13:09:13.771Z,88406.16
2022-12-18T13:11:48.698Z,88407.47
2022-12-18T13:14:42.227Z,88400.78
2022-12-18T13:17:35.676Z,88394.59
2022-12-18T13:20:13.713Z,88388.16
2022-12-18T13:22:48.122Z,88389.72
2022-12-18T13:25:35.989Z,88378.63
2022-12-18T13:28:34.971Z,88376.63
2022-12-18T13:31:04.075Z,88374.06
2022-12-18T13:33:51.047Z,88371.19
2022-12-18T13:36:31.890Z,88366.28
2022-12-18T13:39:35.938Z,88367.81
2022-12-18T13:42:07.044Z,88372.44
2022-12-18T13:44:41.423Z,88370.13
2022-12-18T13:47:33.872Z,88366.50
2022-12-18T13:50:03.380Z,88365.25
2022-12-18T13:52:40.312Z,88376.09
2022-12-18T13:55:19.807Z,88379.47
2022-12-18T13:57:47.681Z,88383.91
2022-12-18T14:00:31.326Z,88384.44
2022-12-18T14:03:00.535Z,88389.34
2022-12-18T14:05:29.334Z,88383.16
2022-12-18T14:08:02.365Z,88389.50
2022-12-18T14:10:49.061Z,88394.88
2022-12-18T14:13:31.312Z,88394.09
2022-12-18T14:16:04.151Z,88403.38
2022-12-18T14:18:57.137Z,88402.81
2022-12-18T14:21:34.619Z,88407.19
2022-12-18T14:24:19.605Z,88413.13
2022-12-18T14:26:51.963Z,88407.75
2022-12-18T14:29:26.344Z,88418.59
2022-12-18T14:32:18.143Z,88411.66
2022-12-18T14:34:53.106Z,88428.72
2022-12-18T14:37:26.262Z,88437.00
2022-12-18T14:39:59.217Z,88434.47
2022-12-18T14:42:30.463Z,88434.00
2022-12-18T14:45:43.131Z,88427.06
2022-12-18T14:48:23.206Z,88436.13
2022-12-18T14:51:02.723Z,88437.19
2022-12-18T14:53:47.742Z,88442.84
2022-12-18T14:56:23.822Z,88440.06
2022-12-18T14:59:06.686Z,88442.38
2022-12-18T15:01:51.702Z,88438.28
2022-12-18T15:04:29.045Z,88445.50
2022-12-18T15:07:20.643Z,88440.88
2022-12-18T15:10:23.797Z,88450.94
2022-12-18T15:12:57.676Z,88442.72
2022-12-18T15:15:37.141Z,88449.94
2022-12-18T15:18:10.350Z,88444.25
2022-12-18T15:20:52.956Z,88448.38
2022-12-18T15:23:45.920Z,88450.94
2022-12-18T15:26:17.209Z,88453.00
2022-12-18T15:28:58.174Z,88455.31
2022-12-18T15:31:35.933Z,88452.00
2022-12-18T15:34:20.272Z,88458.69
2022-12-18T15:36:47.665Z,88456.88
2022-12-18T15:39:14.994Z,88456.88
2022-12-18T15:41:42.320Z,88454.31
2022-12-18T15:44:25.752Z,88453.81
2022-12-18T15:46:53.210Z,88453.81
2022-12-18T15:49:20.500Z,88448.16
2022-12-18T15:51:59.007Z,88448.94
2022-12-18T15:54:26.930Z,88454.38
2022-12-18T15:56:54.111Z,88455.41
2022-12-18T15:59:23.538Z,88454.91
2022-12-18T16:01:52.711Z,88451.81
2022-12-18T16:04:22.559Z,88446.66
2022-12-18T16:07:13.953Z,88455.69
2022-12-18T16:09:38.844Z,88465.75
2022-12-18T16:12:14.939Z,88465.22
2022-12-18T16:14:42.191Z,88470.38
2022-12-18T16:17:13.675Z,88470.88
2022-12-18T16:19:41.130Z,88471.38
2022-12-18T16:22:29.322Z,88471.13
2022-12-18T16:24:58.624Z,88471.66
2022-12-18T16:27:26.966Z,88475.50
2022-12-18T16:29:54.199Z,88489.38
2022-12-18T16:32:23.558Z,88490.44
2022-12-18T16:34:51.945Z,88491.97
2022-12-18T16:37:19.255Z,88496.59
2022-12-18T16:39:46.601Z,88488.38
2022-12-18T16:42:19.645Z,88491.97
2022-12-18T16:44:50.374Z,88490.16
2022-12-18T16:47:19.165Z,88488.09
2022-12-18T16:53:07.277Z,88488.88
2022-12-18T16:56:07.731Z,88490.69
2022-12-18T16:58:55.369Z,88495.56
2022-12-18T17:01:24.133Z,88498.63
2022-12-18T17:04:04.205Z,88494.78
2022-12-18T17:06:36.175Z,88495.56
2022-12-18T17:09:13.972Z,88505.31
2022-12-18T17:11:41.567Z,88497.59
2022-12-18T17:14:16.149Z,88499.66
2022-12-18T17:16:44.810Z,88504.50
2022-12-18T17:19:23.995Z,88499.13
2022-12-18T17:21:54.422Z,88492.69
2022-12-18T17:24:22.715Z,88495.25
2022-12-18T17:26:55.439Z,88493.91
2022-12-18T17:29:23.540Z,88495.22
2022-12-18T17:31:52.460Z,88498.81
2022-12-18T17:34:19.804Z,88501.91
2022-12-18T17:36:47.772Z,88498.53
2022-12-18T17:39:20.354Z,88500.34
2022-12-18T17:41:49.497Z,88502.94
2022-12-18T17:44:18.139Z,88498.34
2022-12-18T17:46:46.095Z,88502.47
2022-12-18T17:49:14.953Z,88504.03
2022-12-18T17:51:42.634Z,88508.38
2022-12-18T17:54:11.553Z,88517.63
2022-12-18T17:56:39.613Z,88518.66
2022-12-18T17:59:07.360Z,88518.41
2022-12-18T18:01:39.723Z,88524.00
2022-12-18T18:04:11.489Z,88521.16
2022-12-18T18:06:40.903Z,88529.09
2022-12-18T18:09:15.178Z,88537.06
2022-12-18T18:11:47.089Z,88539.34
2022-12-18T18:14:19.325Z,88538.06
2022-12-18T18:16:50.436Z,88540.91
2022-12-18T18:19:21.743Z,88546.31
2022-12-18T18:21:52.074Z,88540.94
2022-12-18T18:24:22.972Z,88549.19
2022-12-18T18:26:50.680Z,88535.81
2022-12-18T18:29:26.536Z,88534.00
2022-12-18T18:31:55.072Z,88531.44
2022-12-18T18:34:26.213Z,88526.03
2022-12-18T18:36:54.360Z,88529.66
2022-12-18T18:39:21.744Z,88523.25
2022-12-18T18:41:49.714Z,88544.28
2022-12-18T18:44:19.587Z,88532.47
2022-12-18T18:46:49.348Z,88538.09
2022-12-18T18:49:16.513Z,88543.97
2022-12-18T18:51:43.804Z,88535.44
2022-12-18T18:54:11.089Z,88537.72
2022-12-18T18:57:11.656Z,88542.59
2022-12-18T18:59:31.209Z,88550.75
2022-12-18T19:02:04.186Z,88551.94
2022-12-18T19:04:33.866Z,88548.09
2022-12-18T19:07:01.314Z,88553.22
2022-12-18T19:09:29.180Z,88548.31
2022-12-18T19:11:56.984Z,88549.38
2022-12-18T19:14:24.656Z,88552.69
2022-12-18T19:16:51.933Z,88559.38
2022-12-18T19:19:20.117Z,88555.03
2022-12-18T19:21:48.148Z,88551.94
2022-12-18T19:24:15.372Z,88554.28
2022-12-18T19:26:42.681Z,88556.34
2022-12-18T19:29:12.306Z,88549.16
2022-12-18T19:31:39.556Z,88547.88
2022-12-18T19:34:07.825Z,88547.38
2022-12-18T19:36:38.439Z,88545.84
2022-12-18T19:39:16.223Z,88550.25
2022-12-18T19:41:44.434Z,88550.25
2022-12-18T19:44:16.082Z,88551.81
2022-12-18T19:46:44.898Z,88555.38
2022-12-18T19:49:17.358Z,88560.22
2022-12-18T19:51:45.889Z,88559.91
2022-12-18T19:54:17.057Z,88559.31
2022-12-18T19:56:45.464Z,88556.75
2022-12-18T19:59:12.952Z,88564.69
2022-12-18T20:01:41.050Z,88563.41
2022-12-18T20:04:09.108Z,88566.97
2022-12-18T20:06:50.858Z,88571.59
2022-12-18T20:09:19.270Z,88567.94
2022-12-18T20:11:48.135Z,88568.38
2022-12-18T20:14:19.652Z,88569.38
2022-12-18T20:16:52.360Z,88583.78
2022-12-18T20:19:20.735Z,88576.13
2022-12-18T20:21:48.074Z,88577.13
2022-12-18T20:24:15.251Z,88571.50
2022-12-18T20:26:42.592Z,88560.97
2022-12-18T20:29:10.065Z,88573.31
2022-12-18T20:31:37.361Z,88572.00
2022-12-18T20:34:04.964Z,88580.16
2022-12-18T20:36:35.236Z,88574.25
2022-12-18T20:39:09.885Z,88573.94
2022-12-18T20:41:39.297Z,88577.22
2022-12-18T20:44:21.737Z,88571.38
2022-12-18T20:46:59.783Z,88570.63
2022-12-18T20:49:27.924Z,88561.38
2022-12-18T20:51:57.717Z,88559.59
2022-12-18T20:54:27.504Z,88555.22
2022-12-18T20:56:55.715Z,88561.19
2022-12-18T20:59:23.368Z,88562.72
2022-12-18T21:01:50.947Z,88562.19
2022-12-18T21:04:19.521Z,88559.88
2022-12-18T21:06:53.291Z,88556.78
2022-12-18T21:09:25.119Z,88559.53
2022-12-18T21:11:52.300Z,88562.66
2022-12-18T21:14:24.348Z,88573.94
2022-12-18T21:16:56.243Z,88569.31
2022-12-18T21:19:25.885Z,88572.94
2022-12-18T21:21:55.721Z,88572.31
2022-12-18T21:24:23.923Z,88566.59
2022-12-18T21:26:51.439Z,88567.38
2022-12-18T21:29:23.065Z,88561.50
2022-12-18T21:31:52.446Z,88576.38
2022-12-18T21:34:27.859Z,88575.34
2022-12-18T21:36:58.147Z,88573.03
2022-12-18T21:39:28.945Z,88579.94
2022-12-18T21:41:57.557Z,88581.44
2022-12-18T21:44:25.029Z,88580.63
2022-12-18T21:46:58.239Z,88579.81
2022-12-18T21:49:28.936Z,88579.13
2022-12-18T21:51:58.590Z,88588.63
2022-12-18T21:54:29.026Z,88581.50
2022-12-18T21:57:02.392Z,88577.66
2022-12-18T21:59:38.640Z,88582.34
2022-12-18T22:02:20.538Z,88580.63
2022-12-18T22:04:48.780Z,88581.16
2022-12-18T22:07:17.077Z,88577.34
2022-12-18T22:09:44.495Z,88567.91
2022-12-18T22:12:13.972Z,88562.31
2022-12-18T22:14:41.176Z,88570.25
2022-12-18T22:17:08.331Z,88567.22
2022-12-18T22:19:39.618Z,88564.59
2022-12-18T22:22:09.928Z,88560.00
2022-12-18T22:24:37.178Z,88551.53
2022-12-18T22:27:04.367Z,88549.53
2022-12-18T22:29:31.572Z,88545.91
2022-12-18T22:32:01.151Z,88542.13
2022-12-18T22:34:28.832Z,88540.38
2022-12-18T22:36:56.157Z,88542.94
2022-12-18T22:39:28.700Z,88537.06
2022-12-18T22:41:56.970Z,88538.56
2022-12-18T22:44:27.446Z,88530.84
2022-12-18T22:47:06.297Z,88535.25
2022-12-18T22:49:35.789Z,88530.59
2022-12-18T22:52:09.119Z,88534.19
2022-12-18T22:54:36.459Z,88530.09
2022-12-18T22:57:03.745Z,88529.81
2022-12-18T22:59:31.063Z,88528.53
2022-12-18T23:01:59.489Z,88524.19
2022-12-18T23:04:28.113Z,88520.09
2022-12-18T23:06:59.280Z,88523.72
2022-12-18T23:09:26.455Z,88532.66
2022-12-18T23:11:53.709Z,88522.66
2022-12-18T23:14:20.901Z,88524.50
2022-12-18T23:16:48.249Z,88546.84
2022-12-18T23:19:17.634Z,88538.41
2022-12-18T23:21:44.862Z,88538.97
2022-12-18T23:24:12.041Z,88535.16
2022-12-18T23:26:39.321Z,88535.41
2022-12-18T23:29:07.446Z,88534.88
2022-12-18T23:31:38.240Z,88529.78
2022-12-18T23:34:07.146Z,88528.50
2022-12-18T23:36:45.360Z,88530.84
2022-12-18T23:39:22.325Z,88529.59
2022-12-18T23:42:01.050Z,88522.69
2022-12-18T23:44:28.310Z,88514.72
2022-12-18T23:46:55.770Z,88517.28
2022-12-18T23:49:23.398Z,88510.13
2022-12-18T23:51:50.985Z,88504.72
2022-12-18T23:54:22.671Z,88511.69
2022-12-18T23:57:01.005Z,88518.91
2022-12-18T23:59:28.211Z,88528.44
